createdAt,value
2022-10-17T00:02:38.992Z,11.90
2022-10-17T00:05:49.492Z,11.90
2022-10-17T00:08:59.330Z,11.80
2022-10-17T00:12:07.858Z,11.90
2022-10-17T00:15:18.085Z,11.80
2022-10-17T00:18:26.541Z,11.80
2022-10-17T00:21:35.381Z,11.80
2022-10-17T00:24:45.189Z,11.80
2022-10-17T00:27:53.666Z,11.80
2022-10-17T00:31:03.818Z,11.80
2022-10-17T00:34:12.212Z,11.80
2022-10-17T00:37:20.698Z,11.80
2022-10-17T00:40:30.610Z,11.80
2022-10-17T00:43:57.011Z,11.80
2022-10-17T00:47:10.739Z,11.80
2022-10-17T00:50:21.442Z,11.80
2022-10-17T00:53:31.348Z,11.80
2022-10-17T00:56:41.558Z,11.70
2022-10-17T00:59:53.974Z,11.70
2022-10-17T01:03:02.354Z,11.70
2022-10-17T01:06:10.848Z,11.70
2022-10-17T01:09:19.583Z,11.60
2022-10-17T01:12:40.645Z,11.60
2022-10-17T01:16:01.017Z,11.60
2022-10-17T01:19:30.007Z,11.60
2022-10-17T01:22:48.491Z,11.50
2022-10-17T01:26:03.455Z,11.50
2022-10-17T01:29:42.935Z,11.40
2022-10-17T01:32:57.607Z,11.40
2022-10-17T01:36:12.769Z,11.40
2022-10-17T01:39:31.256Z,11.30
2022-10-17T01:42:49.635Z,11.30
2022-10-17T01:46:04.240Z,11.20
2022-10-17T01:49:17.104Z,11.20
2022-10-17T01:52:28.945Z,11.20
2022-10-17T01:55:40.967Z,11.20
2022-10-17T01:58:54.726Z,11.20
2022-10-17T02:02:03.958Z,11.20
2022-10-17T02:05:14.081Z,11.20
2022-10-17T02:08:30.158Z,11.20
2022-10-17T02:11:38.676Z,11.10
2022-10-17T02:15:01.547Z,11.20
2022-10-17T02:18:24.835Z,11.20
2022-10-17T02:21:42.559Z,11.10
2022-10-17T02:24:56.716Z,11.10
2022-10-17T02:28:15.794Z,11.10
2022-10-17T02:31:29.588Z,11.00
2022-10-17T02:34:42.958Z,11.00
2022-10-17T02:37:54.012Z,10.90
2022-10-17T02:41:04.421Z,10.90
2022-10-17T02:44:13.163Z,10.90
2022-10-17T02:47:27.375Z,10.90
2022-10-17T02:50:49.549Z,10.90
2022-10-17T02:54:06.954Z,10.80
2022-10-17T02:57:23.624Z,10.70
2022-10-17T03:00:33.091Z,10.70
2022-10-17T03:03:41.619Z,10.70
2022-10-17T03:06:50.505Z,10.50
2022-10-17T03:10:01.455Z,10.50
2022-10-17T03:13:11.286Z,10.40
2022-10-17T03:16:22.138Z,10.50
2022-10-17T03:19:30.781Z,10.40
2022-10-17T03:22:39.202Z,10.40
2022-10-17T03:25:49.419Z,10.30
2022-10-17T03:28:58.447Z,10.30
2022-10-17T03:32:09.687Z,10.10
2022-10-17T03:35:18.698Z,10.10
2022-10-17T03:38:30.321Z,10.00
2022-10-17T03:41:40.271Z,9.90
2022-10-17T03:44:48.730Z,9.80
2022-10-17T03:47:57.206Z,9.80
2022-10-17T03:51:08.197Z,9.80
2022-10-17T03:54:21.964Z,9.90
2022-10-17T03:57:32.172Z,9.90
2022-10-17T04:00:40.989Z,9.80
2022-10-17T04:03:51.267Z,9.70
2022-10-17T04:06:59.986Z,9.80
2022-10-17T04:10:09.646Z,9.80
2022-10-17T04:13:19.477Z,9.80
2022-10-17T04:16:28.748Z,9.90
2022-10-17T04:19:43.775Z,9.80
2022-10-17T04:22:52.324Z,9.70
2022-10-17T04:26:03.449Z,9.70
2022-10-17T04:29:13.383Z,9.60
2022-10-17T04:32:24.525Z,9.40
2022-10-17T04:35:43.763Z,9.40
2022-10-17T04:38:52.438Z,9.40
2022-10-17T04:42:01.304Z,9.40
2022-10-17T04:45:12.095Z,9.20
2022-10-17T04:48:22.267Z,9.20
2022-10-17T04:51:31.131Z,9.10
2022-10-17T04:54:58.291Z,9.00
2022-10-17T04:58:06.863Z,9.00
2022-10-17T05:01:19.793Z,9.00
2022-10-17T05:04:32.906Z,8.90
2022-10-17T05:07:42.301Z,8.80
2022-10-17T05:14:07.190Z,8.90
2022-10-17T05:17:17.159Z,8.90
2022-10-17T05:20:26.797Z,8.90
2022-10-17T05:23:35.284Z,9.00
2022-10-17T05:26:43.792Z,8.80
2022-10-17T05:29:52.230Z,8.90
2022-10-17T05:33:08.317Z,8.90
2022-10-17T05:36:16.854Z,8.90
2022-10-17T05:39:25.388Z,8.90
2022-10-17T05:42:34.412Z,8.90
2022-10-17T05:45:44.049Z,8.80
2022-10-17T05:48:59.776Z,8.70
2022-10-17T05:52:08.806Z,8.80
2022-10-17T05:55:27.975Z,8.60
2022-10-17T05:58:49.829Z,8.60
2022-10-17T06:02:17.725Z,8.70
2022-10-17T06:05:27.634Z,8.70
2022-10-17T06:08:37.611Z,8.70
2022-10-17T06:11:47.441Z,8.70
2022-10-17T06:14:56.563Z,8.60
2022-10-17T06:18:05.078Z,8.70
2022-10-17T06:21:18.374Z,8.80
2022-10-17T06:24:28.962Z,8.80
2022-10-17T06:27:38.294Z,8.80
2022-10-17T06:30:46.829Z,8.80
2022-10-17T06:33:56.309Z,8.70
2022-10-17T06:37:06.365Z,8.80
2022-10-17T06:40:17.294Z,8.70
2022-10-17T06:43:28.673Z,8.80
2022-10-17T06:46:57.150Z,8.70
2022-10-17T06:50:05.866Z,8.70
2022-10-17T06:53:31.590Z,8.80
2022-10-17T06:57:02.858Z,8.80
2022-10-17T07:00:31.570Z,8.90
2022-10-17T07:03:41.004Z,8.90
2022-10-17T07:06:49.549Z,9.00
2022-10-17T07:10:03.941Z,9.00
2022-10-17T07:13:12.768Z,9.00
2022-10-17T07:16:21.532Z,9.00
2022-10-17T07:19:35.765Z,9.10
2022-10-17T07:22:44.820Z,9.10
2022-10-17T07:25:54.792Z,9.10
2022-10-17T07:29:03.897Z,9.10
2022-10-17T07:32:29.146Z,9.20
2022-10-17T07:35:40.984Z,9.20
2022-10-17T07:38:49.819Z,9.30
2022-10-17T07:42:00.905Z,9.30
2022-10-17T07:45:11.463Z,9.40
2022-10-17T07:48:20.512Z,9.50
2022-10-17T07:51:29.265Z,9.50
2022-10-17T07:54:37.667Z,9.60
2022-10-17T07:57:47.766Z,9.70
2022-10-17T08:00:56.220Z,9.70
2022-10-17T08:04:04.755Z,9.80
2022-10-17T08:07:21.788Z,9.80
2022-10-17T08:10:32.742Z,9.90
2022-10-17T08:13:43.175Z,10.00
2022-10-17T08:16:51.621Z,10.00
2022-10-17T08:20:00.092Z,10.10
2022-10-17T08:23:08.618Z,10.20
2022-10-17T08:26:17.430Z,10.20
2022-10-17T08:29:27.288Z,10.30
2022-10-17T08:32:35.711Z,10.50
2022-10-17T08:35:44.254Z,10.60
2022-10-17T08:38:53.144Z,10.70
2022-10-17T08:42:21.882Z,10.80
2022-10-17T08:45:36.960Z,10.90
2022-10-17T08:48:47.778Z,10.90
2022-10-17T08:52:05.728Z,11.00
2022-10-17T08:58:34.711Z,11.10
2022-10-17T09:01:50.844Z,11.10
2022-10-17T09:05:23.970Z,11.20
2022-10-17T09:08:44.160Z,11.30
2022-10-17T09:12:13.683Z,11.60
2022-10-17T09:15:44.408Z,11.80
2022-10-17T09:19:02.994Z,11.90
2022-10-17T09:22:16.512Z,12.00
2022-10-17T09:25:25.335Z,12.00
2022-10-17T09:28:36.249Z,12.10
2022-10-17T09:31:49.981Z,12.20
2022-10-17T09:34:59.847Z,12.20
2022-10-17T09:38:08.699Z,12.10
2022-10-17T09:44:55.822Z,12.10
2022-10-17T09:48:12.722Z,12.20
2022-10-17T09:51:25.976Z,12.10
2022-10-17T09:54:44.950Z,12.10
2022-10-17T09:57:56.405Z,12.10
2022-10-17T10:01:22.727Z,12.10
2022-10-17T10:04:46.920Z,12.10
2022-10-17T10:08:05.657Z,12.10
2022-10-17T10:11:14.204Z,12.10
2022-10-17T10:14:24.898Z,12.20
2022-10-17T10:17:39.600Z,12.20
2022-10-17T10:20:48.112Z,12.20
2022-10-17T10:24:07.804Z,12.20
2022-10-17T10:27:18.610Z,12.20
2022-10-17T10:30:34.804Z,12.20
2022-10-17T10:33:49.542Z,12.10
2022-10-17T10:37:03.303Z,12.10
2022-10-17T10:40:20.319Z,12.10
2022-10-17T10:43:35.265Z,12.10
2022-10-17T10:46:43.773Z,12.20
2022-10-17T10:49:54.121Z,12.20
2022-10-17T10:53:25.014Z,12.20
2022-10-17T10:56:39.011Z,12.20
2022-10-17T10:59:56.633Z,12.20
2022-10-17T11:03:14.076Z,12.10
2022-10-17T11:06:28.879Z,12.10
2022-10-17T11:09:47.830Z,12.20
2022-10-17T11:13:02.591Z,12.20
2022-10-17T11:16:24.889Z,12.20
2022-10-17T11:19:37.798Z,12.20
2022-10-17T11:22:48.454Z,12.20
2022-10-17T11:26:01.137Z,12.10
2022-10-17T11:29:14.220Z,12.10
2022-10-17T11:32:26.068Z,12.10
2022-10-17T11:35:38.856Z,12.10
2022-10-17T11:38:51.210Z,12.00
2022-10-17T11:42:04.342Z,12.00
2022-10-17T11:45:19.322Z,12.00
2022-10-17T11:48:32.451Z,12.00
2022-10-17T11:52:03.063Z,12.00
2022-10-17T11:55:19.891Z,12.00
2022-10-17T11:58:40.648Z,12.00
2022-10-17T12:01:56.282Z,12.00
2022-10-17T12:05:13.241Z,11.90
2022-10-17T12:08:31.292Z,11.90
2022-10-17T12:11:54.093Z,11.90
2022-10-17T12:15:30.422Z,11.90
2022-10-17T12:18:40.306Z,11.90
2022-10-17T12:22:00.116Z,11.80
2022-10-17T12:25:20.393Z,11.80
2022-10-17T12:28:32.057Z,11.60
2022-10-17T12:31:40.520Z,11.60
2022-10-17T12:34:58.353Z,11.50
2022-10-17T12:38:27.750Z,11.50
2022-10-17T12:41:56.611Z,11.40
2022-10-17T12:45:53.580Z,11.40
2022-10-17T12:49:29.053Z,11.30
2022-10-17T12:53:04.854Z,11.40
2022-10-17T12:56:14.041Z,11.40
2022-10-17T12:59:26.401Z,11.40
2022-10-17T13:02:35.251Z,11.30
2022-10-17T13:05:47.167Z,11.30
2022-10-17T13:09:03.832Z,11.30
2022-10-17T13:12:16.151Z,11.20
2022-10-17T13:15:24.826Z,11.10
2022-10-17T13:18:33.304Z,11.00
2022-10-17T13:21:50.300Z,11.00
2022-10-17T13:25:14.524Z,10.90
2022-10-17T13:28:23.063Z,10.90
2022-10-17T13:31:34.083Z,10.80
2022-10-17T13:34:42.797Z,10.80
2022-10-17T13:37:54.179Z,10.90
2022-10-17T13:41:33.624Z,10.90
2022-10-17T13:44:37.108Z,11.00
2022-10-17T13:47:47.700Z,11.00
2022-10-17T13:51:02.771Z,10.90
2022-10-17T13:54:19.926Z,10.90
2022-10-17T13:57:32.933Z,11.00
2022-10-17T14:00:41.901Z,11.00
2022-10-17T14:04:02.232Z,11.10
2022-10-17T14:07:29.299Z,11.30
2022-10-17T14:10:41.507Z,11.40
2022-10-17T14:13:53.675Z,11.40
2022-10-17T14:17:02.313Z,11.30
2022-10-17T14:20:57.490Z,11.30
2022-10-17T14:23:48.743Z,11.30
2022-10-17T14:26:58.978Z,11.30
2022-10-17T14:30:55.287Z,11.30
2022-10-17T14:34:04.062Z,11.30
2022-10-17T14:37:14.046Z,11.30
2022-10-17T14:40:24.588Z,11.30
2022-10-17T14:43:33.927Z,11.30
2022-10-17T14:46:50.424Z,11.40
2022-10-17T14:50:09.077Z,11.40
2022-10-17T14:53:22.735Z,11.40
2022-10-17T14:56:38.602Z,11.50
2022-10-17T14:59:55.644Z,11.50
2022-10-17T15:03:05.742Z,11.60
2022-10-17T15:06:19.571Z,11.60
2022-10-17T15:09:29.061Z,11.60
2022-10-17T15:12:52.116Z,11.70
2022-10-17T15:16:23.043Z,11.70
2022-10-17T15:19:33.654Z,11.70
2022-10-17T15:22:42.076Z,11.80
2022-10-17T15:25:51.236Z,11.80
2022-10-17T15:29:00.521Z,11.90
2022-10-17T15:32:14.109Z,11.90
2022-10-17T15:35:24.650Z,12.00
2022-10-17T15:38:42.855Z,12.00
2022-10-17T15:41:58.850Z,12.10
2022-10-17T15:45:10.183Z,12.20
2022-10-17T15:48:24.752Z,12.20
2022-10-17T15:51:34.759Z,12.20
2022-10-17T15:54:43.287Z,12.20
2022-10-17T15:57:51.797Z,12.30
2022-10-17T16:01:00.245Z,12.40
2022-10-17T16:04:12.691Z,12.50
2022-10-17T16:07:22.807Z,12.60
2022-10-17T16:10:31.288Z,12.60
2022-10-17T16:13:41.554Z,12.60
2022-10-17T16:16:50.010Z,12.70
2022-10-17T16:19:58.454Z,12.80
2022-10-17T16:23:08.534Z,12.90
2022-10-17T16:26:19.411Z,13.00
2022-10-17T16:29:39.378Z,13.00
2022-10-17T16:32:48.422Z,13.00
2022-10-17T16:35:56.893Z,13.10
2022-10-17T16:39:09.153Z,13.10
2022-10-17T16:42:19.032Z,13.10
2022-10-17T16:45:31.264Z,13.10
2022-10-17T16:48:51.041Z,13.20
2022-10-17T16:52:06.529Z,13.30
2022-10-17T16:55:18.854Z,13.40
2022-10-17T16:58:32.959Z,13.40
2022-10-17T17:01:44.851Z,13.40
2022-10-17T17:05:04.759Z,13.50
2022-10-17T17:08:13.574Z,13.50
2022-10-17T17:11:25.843Z,13.60
2022-10-17T17:14:39.647Z,13.60
2022-10-17T17:17:55.576Z,13.60
2022-10-17T17:21:11.918Z,13.70
2022-10-17T17:24:22.145Z,13.70
2022-10-17T17:27:32.284Z,13.70
2022-10-17T17:30:40.888Z,13.80
2022-10-17T17:33:49.748Z,13.80
2022-10-17T17:36:59.767Z,13.80
2022-10-17T17:40:10.164Z,13.80
2022-10-17T17:43:23.018Z,13.90
2022-10-17T17:46:39.767Z,13.90
2022-10-17T17:49:56.499Z,13.90
2022-10-17T17:56:41.923Z,13.90
2022-10-17T18:00:02.136Z,13.90
2022-10-17T18:03:23.836Z,14.00
2022-10-17T18:06:45.702Z,14.00
2022-10-17T18:09:54.787Z,14.00
2022-10-17T18:13:07.669Z,14.00
2022-10-17T18:16:30.721Z,14.00
2022-10-17T18:19:44.253Z,14.10
2022-10-17T18:22:57.346Z,14.10
2022-10-17T18:26:17.720Z,14.10
2022-10-17T18:29:39.402Z,14.10
2022-10-17T18:32:53.123Z,14.10
2022-10-17T18:36:14.676Z,14.20
2022-10-17T18:39:27.973Z,14.10
2022-10-17T18:42:40.092Z,14.20
2022-10-17T18:45:49.499Z,14.20
2022-10-17T18:49:07.449Z,14.20
2022-10-17T18:52:19.412Z,14.30
2022-10-17T18:55:31.379Z,14.30
2022-10-17T18:58:46.652Z,14.30
2022-10-17T19:02:12.414Z,14.40
2022-10-17T19:05:22.927Z,14.40
2022-10-17T19:08:31.775Z,14.40
2022-10-17T19:11:42.113Z,14.40
2022-10-17T19:14:53.118Z,14.40
2022-10-17T19:18:01.755Z,14.50
2022-10-17T19:21:14.563Z,14.40
2022-10-17T19:24:29.709Z,14.40
2022-10-17T19:27:46.759Z,14.40
2022-10-17T19:30:58.761Z,14.50
2022-10-17T19:34:07.244Z,14.50
2022-10-17T19:37:19.709Z,14.50
2022-10-17T19:40:31.242Z,14.50
2022-10-17T19:43:41.153Z,14.50
2022-10-17T19:46:49.575Z,14.50
2022-10-17T19:49:58.124Z,14.50
2022-10-17T19:53:19.849Z,14.50
2022-10-17T19:56:33.357Z,14.50
2022-10-17T19:59:41.803Z,14.50
2022-10-17T20:02:50.250Z,14.40
2022-10-17T20:05:58.869Z,14.40
2022-10-17T20:09:16.548Z,14.40
2022-10-17T20:12:26.082Z,14.40
2022-10-17T20:15:34.870Z,14.40
2022-10-17T20:18:43.878Z,14.30
2022-10-17T20:21:52.497Z,14.30
2022-10-17T20:25:02.397Z,14.30
2022-10-17T20:28:10.993Z,14.30
2022-10-17T20:31:19.688Z,14.20
2022-10-17T20:34:28.253Z,14.20
2022-10-17T20:37:41.571Z,14.20
2022-10-17T20:40:52.595Z,14.10
2022-10-17T20:44:01.329Z,14.10
2022-10-17T20:47:16.140Z,14.00
2022-10-17T20:50:25.016Z,14.00
2022-10-17T20:53:37.699Z,14.00
2022-10-17T20:56:47.774Z,13.90
2022-10-17T20:59:56.215Z,14.00
2022-10-17T21:03:04.614Z,13.90
2022-10-17T21:06:13.219Z,14.00
2022-10-17T21:09:22.585Z,13.90
2022-10-17T21:12:50.074Z,13.80
2022-10-17T21:16:06.442Z,13.80
2022-10-17T21:19:16.062Z,13.70
2022-10-17T21:22:24.638Z,13.60
2022-10-17T21:25:33.141Z,13.50
2022-10-17T21:28:44.533Z,13.40
2022-10-17T21:31:53.812Z,13.40
2022-10-17T21:35:02.283Z,13.30
2022-10-17T21:38:10.707Z,13.30
2022-10-17T21:41:22.495Z,13.20
2022-10-17T21:44:32.360Z,13.20
2022-10-17T21:47:41.798Z,13.10
2022-10-17T21:50:58.406Z,13.10
2022-10-17T21:54:07.191Z,13.10
2022-10-17T22:00:30.423Z,13.00
2022-10-17T22:03:45.700Z,13.00
2022-10-17T22:06:55.207Z,12.90
2022-10-17T22:10:03.728Z,12.90
2022-10-17T22:13:12.270Z,12.90
2022-10-17T22:16:22.542Z,12.90
2022-10-17T22:19:31.081Z,12.90
2022-10-17T22:22:39.551Z,12.80
2022-10-17T22:25:54.939Z,12.80
2022-10-17T22:29:04.636Z,12.80
2022-10-17T22:32:18.639Z,12.80
2022-10-17T22:35:30.036Z,12.80
2022-10-17T22:38:38.663Z,12.80
2022-10-17T22:41:47.112Z,12.80
2022-10-17T22:44:55.526Z,12.70
2022-10-17T22:48:05.811Z,12.80
2022-10-17T22:51:14.406Z,12.80
2022-10-17T22:54:22.923Z,12.80
2022-10-17T22:57:31.597Z,12.80
2022-10-17T23:00:40.637Z,12.80
2022-10-17T23:03:51.013Z,12.80
2022-10-17T23:06:59.474Z,12.70
2022-10-17T23:10:08.725Z,12.70
2022-10-17T23:13:17.454Z,12.60
2022-10-17T23:16:25.969Z,12.60
2022-10-17T23:19:35.872Z,12.60
2022-10-17T23:22:44.273Z,12.60
2022-10-17T23:25:53.016Z,12.50
2022-10-17T23:29:01.483Z,12.50
2022-10-17T23:32:09.938Z,12.50
2022-10-17T23:35:19.847Z,12.50
2022-10-17T23:38:28.346Z,12.50
2022-10-17T23:41:36.819Z,12.50
2022-10-17T23:44:45.274Z,12.40
2022-10-17T23:47:53.720Z,12.40
2022-10-17T23:51:03.581Z,12.40
2022-10-17T23:54:12.014Z,12.30
2022-10-17T23:57:20.441Z,12.30
